createdAt,value
2022-11-22T00:00:57.784Z,50.22
2022-11-22T00:03:27.403Z,50.15
2022-11-22T00:05:54.075Z,50.70
2022-11-22T00:08:23.988Z,66.40
2022-11-22T00:10:51.297Z,49.10
2022-11-22T00:13:23.216Z,42.60
2022-11-22T00:16:03.854Z,46.67
2022-11-22T00:18:36.328Z,43.30
2022-11-22T00:21:07.549Z,43.08
2022-11-22T00:23:34.542Z,43.25
2022-11-22T00:26:01.267Z,43.95
2022-11-22T00:28:29.105Z,46.13
2022-11-22T00:30:58.321Z,48.08
2022-11-22T00:33:26.376Z,49.25
2022-11-22T00:36:01.797Z,52.20
2022-11-22T00:38:29.999Z,41.97
2022-11-22T00:40:56.688Z,47.17
2022-11-22T00:43:25.537Z,47.92
2022-11-22T00:45:52.585Z,47.63
2022-11-22T00:48:19.312Z,48.40
2022-11-22T00:50:48.998Z,49.05
2022-11-22T00:53:15.691Z,44.92
2022-11-22T00:55:42.481Z,48.38
2022-11-22T00:58:11.908Z,46.60
2022-11-22T01:00:38.612Z,49.88
2022-11-22T01:03:13.016Z,46.50
2022-11-22T01:05:39.946Z,45.20
2022-11-22T01:08:06.666Z,50.47
2022-11-22T01:10:35.717Z,47.45
2022-11-22T01:13:08.095Z,45.80
2022-11-22T01:15:36.997Z,47.65
2022-11-22T01:20:54.499Z,48.92
2022-11-22T01:23:23.241Z,47.13
2022-11-22T01:25:50.428Z,50.13
2022-11-22T01:28:18.053Z,51.40
2022-11-22T01:30:44.942Z,50.95
2022-11-22T01:33:11.819Z,46.40
2022-11-22T01:35:48.961Z,48.47
2022-11-22T01:38:15.730Z,46.00
2022-11-22T01:40:42.575Z,50.20
2022-11-22T01:43:26.605Z,48.22
2022-11-22T01:45:58.625Z,45.83
2022-11-22T01:48:50.833Z,50.65
2022-11-22T01:51:37.246Z,49.42
2022-11-22T01:54:10.168Z,48.25
2022-11-22T01:56:47.996Z,49.13
2022-11-22T01:59:19.234Z,50.90
2022-11-22T02:01:48.712Z,48.30
2022-11-22T02:04:19.538Z,48.53
2022-11-22T02:07:10.361Z,50.08
2022-11-22T02:09:42.512Z,48.97
2022-11-22T02:12:11.450Z,50.38
2022-11-22T02:14:42.057Z,50.03
2022-11-22T02:17:11.568Z,47.08
2022-11-22T02:19:50.153Z,49.72
2022-11-22T02:22:31.192Z,52.30
2022-11-22T02:25:05.807Z,47.53
2022-11-22T02:27:32.562Z,46.00
2022-11-22T02:30:01.668Z,49.65
2022-11-22T02:32:28.364Z,52.33
2022-11-22T02:34:55.017Z,49.10
2022-11-22T02:37:25.882Z,50.35
2022-11-22T02:39:58.575Z,48.45
2022-11-22T02:42:26.873Z,47.10
2022-11-22T02:44:53.577Z,46.55
2022-11-22T02:47:20.298Z,50.40
2022-11-22T02:49:47.005Z,50.45
2022-11-22T02:52:18.152Z,51.53
2022-11-22T02:54:45.364Z,50.97
2022-11-22T02:57:13.064Z,50.10
2022-11-22T02:59:39.788Z,50.25
2022-11-22T03:02:06.438Z,48.05
2022-11-22T03:04:33.092Z,49.65
2022-11-22T03:07:00.132Z,44.42
2022-11-22T03:09:27.972Z,46.85
2022-11-22T03:11:55.143Z,50.22
2022-11-22T03:14:22.431Z,52.78
2022-11-22T03:16:49.868Z,47.33
2022-11-22T03:19:16.709Z,53.55
2022-11-22T03:21:43.720Z,47.15
2022-11-22T03:24:11.437Z,49.15
2022-11-22T03:26:39.066Z,46.63
2022-11-22T03:29:05.757Z,51.10
2022-11-22T03:31:32.526Z,48.45
2022-11-22T03:33:59.186Z,50.92
2022-11-22T03:36:25.848Z,48.70
2022-11-22T03:38:52.629Z,49.60
2022-11-22T03:41:19.300Z,47.92
2022-11-22T03:43:45.965Z,49.88
2022-11-22T03:46:17.118Z,51.97
2022-11-22T03:48:43.843Z,53.63
2022-11-22T03:51:10.687Z,52.80
2022-11-22T03:53:37.965Z,47.88
2022-11-22T03:56:05.593Z,49.15
2022-11-22T03:58:33.059Z,49.78
2022-11-22T04:00:59.859Z,51.70
2022-11-22T04:03:26.805Z,54.08
2022-11-22T04:05:53.520Z,53.63
2022-11-22T04:08:20.377Z,53.83
2022-11-22T04:10:49.244Z,53.78
2022-11-22T04:13:15.978Z,55.80
2022-11-22T04:15:42.655Z,57.53
2022-11-22T04:18:11.035Z,59.65
2022-11-22T04:20:38.049Z,60.90
2022-11-22T04:23:07.434Z,57.95
2022-11-22T04:25:37.348Z,56.55
2022-11-22T04:28:05.583Z,60.55
2022-11-22T04:30:33.047Z,58.67
2022-11-22T04:32:59.739Z,61.45
2022-11-22T04:35:26.410Z,61.60
2022-11-22T04:37:55.970Z,58.70
2022-11-22T04:40:22.616Z,61.83
2022-11-22T04:42:49.234Z,65.63
2022-11-22T04:45:15.915Z,63.08
2022-11-22T04:47:46.162Z,67.03
2022-11-22T04:50:16.754Z,61.08
2022-11-22T04:52:43.376Z,64.13
2022-11-22T04:55:10.044Z,65.85
2022-11-22T04:57:36.712Z,68.32
2022-11-22T05:00:04.624Z,67.25
2022-11-22T05:02:31.290Z,68.88
2022-11-22T05:04:57.914Z,68.72
2022-11-22T05:07:24.732Z,73.28
2022-11-22T05:09:51.465Z,71.10
2022-11-22T05:12:18.198Z,68.72
2022-11-22T05:14:44.893Z,69.82
2022-11-22T05:17:13.362Z,73.00
2022-11-22T05:19:43.603Z,69.30
2022-11-22T05:22:13.014Z,75.25
2022-11-22T05:24:39.707Z,73.22
2022-11-22T05:27:06.453Z,75.00
2022-11-22T05:29:33.108Z,76.88
2022-11-22T05:31:59.828Z,73.43
2022-11-22T05:34:26.806Z,71.68
2022-11-22T05:36:53.623Z,70.72
2022-11-22T05:39:20.336Z,73.05
2022-11-22T05:41:47.098Z,73.18
2022-11-22T05:44:13.765Z,72.60
2022-11-22T05:46:40.455Z,77.60
2022-11-22T05:49:07.169Z,79.28
2022-11-22T05:51:35.187Z,73.85
2022-11-22T05:54:02.636Z,75.35
2022-11-22T05:56:29.366Z,77.32
2022-11-22T05:58:56.067Z,76.25
2022-11-22T06:01:24.286Z,75.60
2022-11-22T06:03:51.543Z,74.10
2022-11-22T06:06:18.421Z,74.25
2022-11-22T06:08:46.085Z,70.97
2022-11-22T06:11:23.754Z,71.78
2022-11-22T06:13:56.708Z,73.22
2022-11-22T06:16:24.246Z,78.43
2022-11-22T06:18:51.317Z,69.00
2022-11-22T06:21:21.162Z,67.85
2022-11-22T06:23:47.826Z,72.18
2022-11-22T06:26:17.639Z,71.05
2022-11-22T06:28:45.244Z,67.18
2022-11-22T06:31:26.082Z,67.88
2022-11-22T06:33:57.968Z,73.95
2022-11-22T06:36:27.165Z,69.43
2022-11-22T06:38:54.674Z,67.93
2022-11-22T06:41:26.415Z,75.47
2022-11-22T06:43:54.905Z,64.35
2022-11-22T06:46:24.637Z,68.13
2022-11-22T06:48:51.846Z,73.60
2022-11-22T06:51:20.845Z,69.55
2022-11-22T06:53:49.221Z,70.28
2022-11-22T06:56:18.737Z,64.78
2022-11-22T06:58:46.143Z,67.07
2022-11-22T07:01:24.673Z,62.78
2022-11-22T07:03:52.232Z,71.75
2022-11-22T07:06:19.511Z,65.63
2022-11-22T07:08:46.846Z,69.07
2022-11-22T07:11:19.683Z,70.28
2022-11-22T07:13:47.315Z,64.95
2022-11-22T07:16:17.700Z,61.10
2022-11-22T07:18:44.831Z,63.35
2022-11-22T07:21:14.828Z,64.95
2022-11-22T07:23:43.481Z,68.70
2022-11-22T07:26:12.030Z,65.63
2022-11-22T07:28:39.285Z,65.18
2022-11-22T07:31:08.490Z,68.88
2022-11-22T07:33:35.515Z,63.05
2022-11-22T07:36:11.074Z,65.90
2022-11-22T07:41:05.430Z,63.97
2022-11-22T07:43:32.351Z,65.10
2022-11-22T07:46:06.544Z,69.20
2022-11-22T07:48:33.582Z,67.40
2022-11-22T07:51:07.696Z,67.20
2022-11-22T07:53:34.953Z,70.82
2022-11-22T07:56:05.733Z,72.07
2022-11-22T07:58:33.860Z,72.82
2022-11-22T08:01:08.987Z,70.97
2022-11-22T08:03:36.525Z,72.85
2022-11-22T08:06:05.305Z,65.93
2022-11-22T08:08:32.865Z,67.03
2022-11-22T08:10:59.745Z,66.15
2022-11-22T08:13:27.167Z,67.95
2022-11-22T08:15:55.182Z,69.80
2022-11-22T08:18:23.136Z,65.10
2022-11-22T08:20:49.810Z,67.55
2022-11-22T08:23:16.516Z,65.85
2022-11-22T08:25:43.197Z,67.32
2022-11-22T08:28:09.827Z,67.15
2022-11-22T08:30:36.462Z,65.15
2022-11-22T08:33:03.165Z,64.80
2022-11-22T08:35:29.839Z,67.50
2022-11-22T08:37:57.486Z,75.00
2022-11-22T08:40:24.404Z,70.85
2022-11-22T08:42:54.185Z,67.28
2022-11-22T08:45:20.878Z,77.88
2022-11-22T08:47:47.888Z,71.35
2022-11-22T08:50:15.109Z,71.18
2022-11-22T08:52:41.768Z,75.32
2022-11-22T08:55:08.922Z,77.85
2022-11-22T08:57:35.668Z,76.78
2022-11-22T09:00:02.598Z,78.57
2022-11-22T09:02:29.296Z,79.88
2022-11-22T09:04:58.470Z,78.60
2022-11-22T09:10:12.026Z,79.07
2022-11-22T09:12:38.721Z,78.07
2022-11-22T09:15:05.838Z,80.97
2022-11-22T09:17:32.514Z,79.60
2022-11-22T09:19:59.222Z,82.03
2022-11-22T09:22:28.626Z,79.13
2022-11-22T09:24:55.554Z,76.68
2022-11-22T09:27:22.271Z,85.18
2022-11-22T09:29:49.055Z,83.05
2022-11-22T09:32:16.121Z,85.60
2022-11-22T09:34:45.580Z,84.63
2022-11-22T09:37:12.416Z,77.70
2022-11-22T09:39:46.749Z,80.03
2022-11-22T09:42:37.121Z,80.32
2022-11-22T09:45:35.456Z,80.15
2022-11-22T09:48:27.602Z,79.55
2022-11-22T09:51:10.205Z,79.55
2022-11-22T09:53:44.076Z,80.75
2022-11-22T09:56:15.165Z,86.97
2022-11-22T09:59:05.566Z,80.13
2022-11-22T10:02:18.588Z,83.80
2022-11-22T10:04:54.478Z,85.63
2022-11-22T10:07:30.431Z,86.05
2022-11-22T10:10:16.784Z,82.93
2022-11-22T10:12:55.433Z,85.78
2022-11-22T10:15:34.039Z,84.63
2022-11-22T10:18:16.112Z,85.03
2022-11-22T10:20:48.594Z,88.78
2022-11-22T10:23:22.376Z,87.60
2022-11-22T10:26:00.227Z,88.22
2022-11-22T10:28:42.871Z,84.47
2022-11-22T10:31:16.332Z,81.95
2022-11-22T10:34:04.582Z,84.72
2022-11-22T10:36:53.292Z,90.32
2022-11-22T10:39:31.457Z,87.22
2022-11-22T10:42:28.281Z,86.43
2022-11-22T10:45:12.852Z,85.38
2022-11-22T10:47:52.716Z,101.90
2022-11-22T10:50:41.486Z,85.97
2022-11-22T10:53:26.252Z,83.63
2022-11-22T10:56:11.742Z,84.28
2022-11-22T10:58:57.089Z,82.35
2022-11-22T11:01:56.195Z,91.57
2022-11-22T11:04:24.344Z,85.30
2022-11-22T11:07:11.503Z,85.88
2022-11-22T11:12:54.976Z,86.85
2022-11-22T11:15:28.208Z,88.13
2022-11-22T11:18:00.913Z,85.07
2022-11-22T11:20:31.166Z,87.82
2022-11-22T11:23:14.220Z,88.82
2022-11-22T11:25:46.462Z,85.72
2022-11-22T11:28:17.440Z,89.07
2022-11-22T11:30:59.175Z,82.43
2022-11-22T11:33:34.540Z,83.03
2022-11-22T11:36:05.932Z,87.95
2022-11-22T11:38:44.604Z,90.13
2022-11-22T11:41:25.558Z,88.53
2022-11-22T11:43:54.456Z,84.43
2022-11-22T11:46:28.957Z,86.38
2022-11-22T11:49:09.494Z,83.85
2022-11-22T11:51:39.371Z,81.93
2022-11-22T11:54:13.381Z,80.60
2022-11-22T11:56:52.459Z,85.22
2022-11-22T11:59:35.603Z,84.32
2022-11-22T12:02:17.048Z,83.18
2022-11-22T12:04:49.734Z,82.18
2022-11-22T12:07:20.611Z,89.40
2022-11-22T12:09:49.981Z,93.78
2022-11-22T12:12:44.475Z,81.75
2022-11-22T12:15:21.057Z,89.97
2022-11-22T12:17:54.535Z,82.70
2022-11-22T12:20:45.801Z,86.50
2022-11-22T12:23:30.060Z,84.65
2022-11-22T12:25:58.294Z,75.43
2022-11-22T12:28:27.777Z,82.68
2022-11-22T12:34:01.041Z,82.95
2022-11-22T12:36:38.909Z,85.30
2022-11-22T12:39:08.510Z,83.60
2022-11-22T12:41:36.422Z,84.35
2022-11-22T12:44:06.916Z,82.05
2022-11-22T12:46:42.014Z,79.53
2022-11-22T12:48:23.306Z,85.00
2022-11-22T12:49:14.226Z,87.95
2022-11-22T12:52:13.231Z,79.38
2022-11-22T12:55:16.149Z,80.13
2022-11-22T12:58:26.949Z,86.75
2022-11-22T13:01:05.661Z,79.20
2022-11-22T13:03:57.464Z,76.63
2022-11-22T13:06:27.678Z,80.18
2022-11-22T13:09:09.970Z,77.97
2022-11-22T13:11:39.424Z,82.15
2022-11-22T13:14:38.608Z,80.80
2022-11-22T13:17:14.381Z,85.38
2022-11-22T13:19:46.837Z,80.15
2022-11-22T13:22:50.766Z,84.90
2022-11-22T13:25:50.757Z,83.13
2022-11-22T13:28:26.634Z,82.63
2022-11-22T13:31:07.457Z,80.57
2022-11-22T13:33:36.787Z,83.60
2022-11-22T13:36:23.133Z,79.15
2022-11-22T13:38:55.124Z,81.85
2022-11-22T13:41:36.297Z,82.78
2022-11-22T13:44:21.760Z,78.97
2022-11-22T13:47:04.354Z,79.30
2022-11-22T13:49:42.381Z,79.07
2022-11-22T13:52:16.395Z,79.70
2022-11-22T13:54:52.502Z,79.32
2022-11-22T13:57:42.112Z,81.88
2022-11-22T14:00:12.033Z,81.90
2022-11-22T14:02:47.595Z,81.13
2022-11-22T14:05:40.944Z,80.13
2022-11-22T14:08:37.146Z,84.07
2022-11-22T14:11:29.114Z,80.53
2022-11-22T14:14:20.838Z,81.57
2022-11-22T14:16:54.268Z,85.88
2022-11-22T14:19:53.429Z,79.53
2022-11-22T14:22:29.646Z,79.28
2022-11-22T14:25:25.653Z,85.45
2022-11-22T14:28:01.899Z,81.82
2022-11-22T14:30:46.657Z,85.82
2022-11-22T14:33:19.375Z,84.35
2022-11-22T14:36:07.555Z,82.20
2022-11-22T14:38:44.850Z,83.15
2022-11-22T14:41:26.541Z,84.10
2022-11-22T14:44:03.619Z,86.03
2022-11-22T14:46:55.776Z,83.22
2022-11-22T14:49:43.322Z,86.88
2022-11-22T14:52:25.614Z,86.75
2022-11-22T14:55:05.648Z,87.40
2022-11-22T14:57:34.754Z,97.63
2022-11-22T15:00:19.880Z,96.03
2022-11-22T15:03:05.051Z,90.57
2022-11-22T15:09:20.800Z,88.03
2022-11-22T15:09:33.369Z,89.47
2022-11-22T15:11:52.181Z,88.28
2022-11-22T15:14:52.635Z,89.68
2022-11-22T15:57:33.240Z,91.53
2022-11-22T16:00:00.896Z,98.80
2022-11-22T16:02:30.247Z,91.60
2022-11-22T16:06:06.775Z,88.15
2022-11-22T16:07:51.407Z,87.20
2022-11-22T16:10:41.235Z,89.15
2022-11-22T16:13:20.658Z,90.25
2022-11-22T16:16:11.525Z,90.43
2022-11-22T16:18:43.753Z,96.40
2022-11-22T16:21:10.547Z,94.68
2022-11-22T16:23:38.674Z,91.25
2022-11-22T16:26:20.156Z,98.70
2022-11-22T16:28:48.374Z,102.53
2022-11-22T16:31:26.135Z,99.43
2022-11-22T16:33:54.247Z,98.75
2022-11-22T16:36:23.244Z,92.38
2022-11-22T16:38:50.085Z,91.10
2022-11-22T16:41:25.760Z,95.22
2022-11-22T16:46:23.050Z,92.82
2022-11-22T16:48:50.090Z,96.28
2022-11-22T16:51:22.728Z,99.30
2022-11-22T16:53:50.626Z,99.45
2022-11-22T16:56:18.434Z,100.40
2022-11-22T16:58:46.037Z,101.57
2022-11-22T17:01:20.802Z,99.18
2022-11-22T17:03:49.413Z,101.40
2022-11-22T17:06:19.052Z,102.45
2022-11-22T17:08:50.176Z,105.18
2022-11-22T17:11:19.962Z,99.80
2022-11-22T17:13:47.632Z,99.70
2022-11-22T17:16:14.992Z,101.53
2022-11-22T17:18:41.673Z,102.35
2022-11-22T17:21:20.415Z,99.43
2022-11-22T17:23:48.147Z,100.70
2022-11-22T17:26:14.835Z,101.30
2022-11-22T17:28:41.500Z,102.80
2022-11-22T17:31:16.859Z,100.25
2022-11-22T17:33:43.786Z,99.65
2022-11-22T17:36:24.077Z,105.93
2022-11-22T17:38:50.803Z,100.22
2022-11-22T17:41:18.358Z,106.07
2022-11-22T17:43:45.351Z,101.10
2022-11-22T17:46:12.032Z,104.63
2022-11-22T17:48:38.719Z,98.63
2022-11-22T17:51:07.002Z,101.05
2022-11-22T17:53:33.908Z,100.88
2022-11-22T17:56:10.346Z,102.15
2022-11-22T17:58:37.979Z,104.95
2022-11-22T18:01:11.136Z,101.50
2022-11-22T18:03:38.751Z,104.32
2022-11-22T18:06:06.140Z,105.35
2022-11-22T18:08:33.439Z,105.80
2022-11-22T18:11:01.045Z,97.88
2022-11-22T18:13:30.025Z,103.70
2022-11-22T18:16:03.188Z,106.68
2022-11-22T18:18:55.587Z,102.63
2022-11-22T18:21:17.899Z,104.28
2022-11-22T18:23:44.992Z,108.50
2022-11-22T18:29:32.407Z,105.70
2022-11-22T18:31:52.340Z,102.45
2022-11-22T18:34:20.209Z,105.70
2022-11-22T18:36:55.312Z,100.90
2022-11-22T18:39:23.246Z,100.10
2022-11-22T18:41:49.904Z,105.75
2022-11-22T18:44:17.137Z,104.07
2022-11-22T18:46:43.885Z,104.82
2022-11-22T18:49:10.647Z,99.47
2022-11-22T18:51:37.405Z,105.93
2022-11-22T18:54:04.277Z,103.13
2022-11-22T18:56:31.014Z,105.07
2022-11-22T18:58:57.694Z,105.85
2022-11-22T19:01:24.458Z,109.43
2022-11-22T19:03:51.212Z,105.18
2022-11-22T19:06:19.238Z,105.25
2022-11-22T19:08:47.039Z,101.68
2022-11-22T19:11:14.308Z,107.63
2022-11-22T19:13:42.589Z,107.78
2022-11-22T19:16:19.295Z,100.60
2022-11-22T19:18:46.038Z,99.38
2022-11-22T19:21:15.078Z,101.68
2022-11-22T19:23:41.879Z,105.20
2022-11-22T19:26:14.672Z,103.22
2022-11-22T19:28:42.404Z,104.35
2022-11-22T19:31:13.544Z,117.82
2022-11-22T19:33:40.803Z,106.60
2022-11-22T19:36:17.818Z,105.47
2022-11-22T19:38:45.320Z,105.18
2022-11-22T19:41:14.415Z,103.45
2022-11-22T19:43:41.229Z,101.55
2022-11-22T19:46:08.127Z,107.55
2022-11-22T19:48:35.355Z,103.32
2022-11-22T19:51:13.120Z,108.15
2022-11-22T19:53:40.578Z,101.00
2022-11-22T19:56:14.242Z,107.82
2022-11-22T19:58:41.335Z,100.63
2022-11-22T20:01:13.429Z,97.28
2022-11-22T20:03:41.561Z,100.93
2022-11-22T20:06:10.571Z,104.88
2022-11-22T20:08:37.856Z,101.13
2022-11-22T20:11:07.521Z,103.05
2022-11-22T20:13:36.134Z,101.22
2022-11-22T20:16:17.508Z,96.47
2022-11-22T20:18:44.165Z,102.25
2022-11-22T20:21:11.436Z,104.75
2022-11-22T20:23:38.643Z,97.82
2022-11-22T20:26:10.751Z,103.47
2022-11-22T20:28:42.120Z,98.72
2022-11-22T20:31:17.441Z,104.63
2022-11-22T20:33:46.758Z,99.50
2022-11-22T20:36:22.036Z,104.43
2022-11-22T20:38:49.619Z,98.65
2022-11-22T20:41:18.663Z,100.10
2022-11-22T20:43:45.891Z,102.45
2022-11-22T20:46:15.155Z,100.25
2022-11-22T20:48:43.877Z,104.47
2022-11-22T20:51:13.151Z,96.43
2022-11-22T20:53:40.603Z,100.90
2022-11-22T20:56:07.682Z,101.93
2022-11-22T20:58:34.313Z,104.80
2022-11-22T21:01:08.337Z,104.05
2022-11-22T21:03:35.567Z,105.47
2022-11-22T21:06:02.773Z,108.65
2022-11-22T21:08:29.784Z,104.65
2022-11-22T21:11:17.396Z,98.18
2022-11-22T21:13:44.471Z,99.60
2022-11-22T21:16:23.209Z,106.68
2022-11-22T21:18:55.411Z,99.20
2022-11-22T21:21:23.847Z,101.28
2022-11-22T21:23:55.973Z,101.40
2022-11-22T21:26:24.594Z,105.28
2022-11-22T21:28:52.349Z,106.78
2022-11-22T21:31:20.445Z,103.22
2022-11-22T21:33:48.057Z,102.60
2022-11-22T21:36:15.050Z,101.93
2022-11-22T21:38:41.762Z,104.78
2022-11-22T21:44:00.498Z,105.05
2022-11-22T21:46:27.174Z,114.43
2022-11-22T21:48:53.980Z,100.70
2022-11-22T21:51:20.635Z,106.90
2022-11-22T21:53:47.361Z,111.47
2022-11-22T21:56:14.046Z,113.53
2022-11-22T21:58:42.325Z,107.78
2022-11-22T22:01:13.851Z,111.10
2022-11-22T22:03:42.334Z,113.22
2022-11-22T22:06:09.004Z,112.30
2022-11-22T22:08:36.059Z,112.95
2022-11-22T22:11:04.039Z,110.22
2022-11-22T22:13:31.186Z,120.65
2022-11-22T22:16:00.266Z,113.43
2022-11-22T22:18:34.851Z,117.13
2022-11-22T22:21:12.609Z,120.07
2022-11-22T22:23:40.536Z,109.68
2022-11-22T22:26:12.438Z,113.05
2022-11-22T22:28:39.947Z,114.95
2022-11-22T22:31:15.616Z,116.75
2022-11-22T22:36:10.554Z,116.25
2022-11-22T22:38:37.508Z,121.80
2022-11-22T22:41:05.657Z,117.00
2022-11-22T22:43:35.171Z,125.05
2022-11-22T22:46:14.420Z,124.03
2022-11-22T22:48:41.798Z,122.72
2022-11-22T22:51:14.959Z,126.95
2022-11-22T22:53:42.395Z,121.57
2022-11-22T22:56:10.576Z,122.68
2022-11-22T22:58:37.250Z,126.13
2022-11-22T23:01:04.789Z,140.20
2022-11-22T23:03:31.640Z,136.02
2022-11-22T23:05:59.041Z,126.43
2022-11-22T23:08:25.750Z,126.05
2022-11-22T23:10:52.451Z,122.40
2022-11-22T23:13:19.140Z,126.47
2022-11-22T23:15:58.068Z,132.63
2022-11-22T23:18:25.280Z,128.95
2022-11-22T23:20:52.190Z,130.18
2022-11-22T23:23:18.890Z,126.78
2022-11-22T23:25:45.545Z,128.95
2022-11-22T23:28:12.246Z,135.88
2022-11-22T23:30:38.913Z,129.10
2022-11-22T23:33:05.543Z,130.88
2022-11-22T23:35:35.105Z,133.57
2022-11-22T23:38:01.891Z,131.15
2022-11-22T23:40:29.123Z,134.88
2022-11-22T23:42:58.910Z,139.68
2022-11-22T23:45:25.566Z,128.52
2022-11-22T23:47:52.609Z,126.72
2022-11-22T23:50:19.715Z,144.57
2022-11-22T23:52:46.513Z,135.48
2022-11-22T23:55:13.159Z,126.97
2022-11-22T23:57:39.841Z,132.30
